createdAt,value
2019-05-09T00:02:27.106Z,9.50
2019-05-09T00:04:54.646Z,10.70
2019-05-09T00:07:23.295Z,8.83
2019-05-09T00:09:53.225Z,9.33
2019-05-09T00:12:20.320Z,10.63
2019-05-09T00:14:47.881Z,10.10
2019-05-09T00:17:15.447Z,9.80
2019-05-09T00:19:43.875Z,9.93
2019-05-09T00:22:13.651Z,9.10
2019-05-09T00:24:41.005Z,9.93
2019-05-09T00:27:08.965Z,9.90
2019-05-09T00:29:43.846Z,9.07
2019-05-09T00:32:29.410Z,11.93
2019-05-09T00:35:03.857Z,11.00
2019-05-09T00:37:49.661Z,10.70
2019-05-09T00:40:19.018Z,10.10
2019-05-09T00:42:47.555Z,11.90
2019-05-09T00:45:38.005Z,12.20
2019-05-09T00:48:05.578Z,11.93
2019-05-09T00:50:34.198Z,11.40
2019-05-09T00:53:03.103Z,10.70
2019-05-09T00:55:30.683Z,11.70
2019-05-09T00:57:58.375Z,10.77
2019-05-09T01:00:26.038Z,10.33
2019-05-09T01:02:54.228Z,11.00
2019-05-09T01:05:23.919Z,11.47
2019-05-09T01:07:53.627Z,11.73
2019-05-09T01:10:20.675Z,12.43
2019-05-09T01:12:48.475Z,12.83
2019-05-09T01:15:17.459Z,11.73
2019-05-09T01:17:44.907Z,12.33
2019-05-09T01:20:14.563Z,11.10
2019-05-09T01:22:43.580Z,13.00
2019-05-09T01:25:13.312Z,12.70
2019-05-09T01:27:40.396Z,14.00
2019-05-09T01:30:08.328Z,14.43
2019-05-09T01:32:57.971Z,12.77
2019-05-09T01:35:25.499Z,13.37
2019-05-09T01:37:53.886Z,13.87
2019-05-09T01:40:23.793Z,13.43
2019-05-09T01:42:53.949Z,15.20
2019-05-09T01:45:23.547Z,13.50
2019-05-09T01:47:50.826Z,17.33
2019-05-09T01:50:18.282Z,15.80
2019-05-09T01:52:46.226Z,17.60
2019-05-09T01:55:14.304Z,17.20
2019-05-09T01:57:45.606Z,16.30
2019-05-09T02:00:13.258Z,17.90
2019-05-09T02:02:40.836Z,19.53
2019-05-09T02:05:08.606Z,17.30
2019-05-09T02:07:35.933Z,17.23
2019-05-09T02:10:03.753Z,18.93
2019-05-09T02:12:31.078Z,21.00
2019-05-09T02:15:18.025Z,18.30
2019-05-09T02:18:01.095Z,18.60
2019-05-09T02:20:24.057Z,21.10
2019-05-09T02:22:54.247Z,21.27
2019-05-09T02:25:24.071Z,20.83
2019-05-09T02:27:51.012Z,18.97
2019-05-09T02:30:18.502Z,25.20
2019-05-09T02:32:46.366Z,24.10
2019-05-09T02:35:13.879Z,21.90
2019-05-09T02:37:41.452Z,22.80
2019-05-09T02:40:09.957Z,25.53
2019-05-09T02:42:39.559Z,26.93
2019-05-09T02:45:08.357Z,24.77
2019-05-09T02:47:38.549Z,29.33
2019-05-09T02:50:08.922Z,24.40
2019-05-09T02:52:35.224Z,30.00
2019-05-09T02:55:02.861Z,30.17
2019-05-09T02:57:30.508Z,27.87
2019-05-09T03:00:20.471Z,29.07
2019-05-09T03:03:13.323Z,28.13
2019-05-09T03:05:40.734Z,27.77
2019-05-09T03:08:08.963Z,30.27
2019-05-09T03:10:38.040Z,35.07
2019-05-09T03:13:08.670Z,28.50
2019-05-09T03:15:35.204Z,34.40
2019-05-09T03:18:02.756Z,35.53
2019-05-09T03:20:40.318Z,34.07
2019-05-09T03:23:09.067Z,35.83
2019-05-09T03:25:40.516Z,54.47
2019-05-09T03:28:18.438Z,35.00
2019-05-09T03:30:50.092Z,35.73
2019-05-09T03:33:20.056Z,34.73
2019-05-09T03:35:48.821Z,35.33
2019-05-09T03:38:17.973Z,31.83
2019-05-09T03:40:47.664Z,33.70
2019-05-09T03:43:15.331Z,33.10
2019-05-09T03:45:49.948Z,38.37
2019-05-09T03:48:23.366Z,33.60
2019-05-09T03:50:50.821Z,32.70
2019-05-09T03:53:18.533Z,35.83
2019-05-09T03:55:47.544Z,35.80
2019-05-09T03:58:18.365Z,35.87
2019-05-09T04:00:48.857Z,37.30
2019-05-09T04:03:19.816Z,32.77
2019-05-09T04:06:05.210Z,37.47
2019-05-09T04:08:33.021Z,35.80
2019-05-09T04:11:00.569Z,33.50
2019-05-09T04:13:33.713Z,35.77
2019-05-09T04:16:01.120Z,36.27
2019-05-09T04:18:28.629Z,36.90
2019-05-09T04:20:57.342Z,41.23
2019-05-09T04:23:24.973Z,37.60
2019-05-09T04:26:01.117Z,36.97
2019-05-09T04:28:28.617Z,39.60
2019-05-09T04:30:58.145Z,35.23
2019-05-09T04:33:27.803Z,38.90
2019-05-09T04:35:55.009Z,38.13
2019-05-09T04:38:22.605Z,38.00
2019-05-09T04:40:50.006Z,36.73
2019-05-09T04:43:26.709Z,37.10
2019-05-09T04:45:54.038Z,38.80
2019-05-09T04:48:31.335Z,41.53
2019-05-09T04:51:00.526Z,40.93
2019-05-09T04:53:28.576Z,42.53
2019-05-09T04:55:58.154Z,39.87
2019-05-09T04:58:27.408Z,39.03
2019-05-09T05:01:13.483Z,37.40
2019-05-09T05:03:42.453Z,36.00
2019-05-09T05:06:10.283Z,35.50
2019-05-09T05:08:37.815Z,37.10
2019-05-09T05:11:07.327Z,38.17
2019-05-09T05:13:34.490Z,35.50
2019-05-09T05:16:02.885Z,36.07
2019-05-09T05:18:30.960Z,31.20
2019-05-09T05:20:58.578Z,37.93
2019-05-09T05:23:32.694Z,33.87
2019-05-09T05:26:00.325Z,33.60
2019-05-09T05:28:28.314Z,35.73
2019-05-09T05:30:58.067Z,35.60
2019-05-09T05:33:34.595Z,32.27
2019-05-09T05:36:05.173Z,33.37
2019-05-09T05:38:32.577Z,35.90
2019-05-09T05:41:00.294Z,30.93
2019-05-09T05:43:40.901Z,31.93
2019-05-09T05:46:15.269Z,31.73
2019-05-09T05:48:43.302Z,32.63
2019-05-09T05:51:10.717Z,31.03
2019-05-09T05:53:38.146Z,30.70
2019-05-09T05:56:05.648Z,32.27
2019-05-09T05:58:33.202Z,30.93
2019-05-09T06:01:04.145Z,30.97
2019-05-09T06:03:30.243Z,29.00
2019-05-09T06:05:58.439Z,29.50
2019-05-09T06:08:27.566Z,29.57
2019-05-09T06:10:57.470Z,28.40
2019-05-09T06:13:24.591Z,28.87
2019-05-09T06:15:51.955Z,28.10
2019-05-09T06:18:19.526Z,30.17
2019-05-09T06:20:48.644Z,28.53
2019-05-09T06:23:17.601Z,27.80
2019-05-09T06:25:48.453Z,31.03
2019-05-09T06:28:15.302Z,31.27
2019-05-09T06:30:42.633Z,31.67
2019-05-09T06:33:10.163Z,31.03
2019-05-09T06:35:38.026Z,28.57
2019-05-09T06:38:07.677Z,25.00
2019-05-09T06:40:34.974Z,26.10
2019-05-09T06:43:18.279Z,25.23
2019-05-09T06:46:12.999Z,22.63
2019-05-09T06:48:40.497Z,23.80
2019-05-09T06:51:07.879Z,21.70
2019-05-09T06:53:35.322Z,23.20
2019-05-09T06:56:02.862Z,21.67
2019-05-09T06:58:30.377Z,19.80
2019-05-09T07:01:04.902Z,19.90
2019-05-09T07:03:32.779Z,19.20
2019-05-09T07:06:08.462Z,18.13
2019-05-09T07:08:49.193Z,17.67
2019-05-09T07:11:19.033Z,17.70
2019-05-09T07:13:47.770Z,18.17
2019-05-09T07:16:15.265Z,17.87
2019-05-09T07:18:43.073Z,18.77
2019-05-09T07:21:10.620Z,16.83
2019-05-09T07:23:38.043Z,15.07
2019-05-09T07:26:09.595Z,15.40
2019-05-09T07:28:37.729Z,15.40
2019-05-09T07:31:23.415Z,16.90
2019-05-09T07:33:58.833Z,15.57
2019-05-09T07:36:27.812Z,14.47
2019-05-09T07:38:55.350Z,13.27
2019-05-09T07:41:23.020Z,14.00
2019-05-09T07:43:53.765Z,13.70
2019-05-09T07:46:28.096Z,12.90
2019-05-09T07:48:57.798Z,12.17
2019-05-09T07:51:27.304Z,12.90
2019-05-09T07:53:54.342Z,13.60
2019-05-09T07:56:22.178Z,12.27
2019-05-09T07:58:49.674Z,12.90
2019-05-09T08:01:19.054Z,11.03
2019-05-09T08:03:49.027Z,12.53
2019-05-09T08:06:18.338Z,11.83
2019-05-09T08:08:48.752Z,11.20
2019-05-09T08:11:17.978Z,9.93
2019-05-09T08:13:48.590Z,11.50
2019-05-09T08:16:18.432Z,10.53
2019-05-09T08:18:48.165Z,9.43
2019-05-09T08:21:17.966Z,9.40
2019-05-09T08:23:48.504Z,9.03
2019-05-09T08:26:18.668Z,9.63
2019-05-09T08:28:48.132Z,12.13
2019-05-09T08:31:17.692Z,10.57
2019-05-09T08:33:48.605Z,11.97
2019-05-09T08:36:18.016Z,10.57
2019-05-09T08:38:47.767Z,11.23
2019-05-09T08:41:18.390Z,10.63
2019-05-09T08:43:48.169Z,9.43
2019-05-09T08:46:15.218Z,9.90
2019-05-09T08:48:43.242Z,9.30
2019-05-09T08:51:38.443Z,10.30
2019-05-09T08:54:03.315Z,10.00
2019-05-09T08:56:30.805Z,8.33
2019-05-09T08:59:01.931Z,8.07
2019-05-09T09:01:46.061Z,8.60
2019-05-09T09:03:57.635Z,8.10
2019-05-09T09:06:27.681Z,9.70
2019-05-09T09:08:57.644Z,8.53
2019-05-09T09:11:25.136Z,8.80
2019-05-09T09:13:52.490Z,9.77
2019-05-09T09:16:22.542Z,9.07
2019-05-09T09:18:49.345Z,9.33
2019-05-09T09:21:18.286Z,9.30
2019-05-09T09:23:50.467Z,8.20
2019-05-09T09:26:18.230Z,7.93
2019-05-09T09:28:48.565Z,8.20
2019-05-09T09:31:17.920Z,8.50
2019-05-09T09:33:47.851Z,8.30
2019-05-09T09:36:17.641Z,6.83
2019-05-09T09:38:48.021Z,6.80
2019-05-09T09:41:14.534Z,7.57
2019-05-09T09:43:42.039Z,6.13
2019-05-09T09:46:14.472Z,6.97
2019-05-09T09:48:39.191Z,7.50
2019-05-09T09:51:08.039Z,7.20
2019-05-09T09:53:38.242Z,6.73
2019-05-09T09:56:05.590Z,6.43
2019-05-09T09:58:32.946Z,6.43
2019-05-09T10:01:24.348Z,10.07
2019-05-09T10:04:15.654Z,5.00
2019-05-09T10:06:31.475Z,4.20
2019-05-09T10:08:58.903Z,6.40
2019-05-09T10:11:28.577Z,6.47
2019-05-09T10:13:55.627Z,8.70
2019-05-09T10:16:48.410Z,7.10
2019-05-09T10:19:21.691Z,8.70
2019-05-09T10:21:52.372Z,7.27
2019-05-09T10:24:19.975Z,6.60
2019-05-09T10:27:08.775Z,3.87
2019-05-09T10:29:38.523Z,5.10
2019-05-09T10:32:09.553Z,5.97
2019-05-09T10:34:37.819Z,5.60
2019-05-09T10:37:07.729Z,6.27
2019-05-09T10:39:37.938Z,5.40
2019-05-09T10:42:11.735Z,5.67
2019-05-09T10:44:46.198Z,6.90
2019-05-09T10:47:22.697Z,4.03
2019-05-09T10:49:50.456Z,7.10
2019-05-09T10:52:18.331Z,6.23
2019-05-09T10:54:47.411Z,4.20
2019-05-09T10:57:14.892Z,4.43
2019-05-09T10:59:42.508Z,7.03
2019-05-09T11:02:10.007Z,4.60
2019-05-09T11:04:39.814Z,4.07
2019-05-09T11:07:08.070Z,4.97
2019-05-09T11:09:35.744Z,5.20
2019-05-09T11:12:03.327Z,4.23
2019-05-09T11:14:36.770Z,6.03
2019-05-09T11:17:11.013Z,4.30
2019-05-09T11:19:29.686Z,4.83
2019-05-09T11:21:58.610Z,5.37
2019-05-09T11:24:41.787Z,3.20
2019-05-09T11:27:15.329Z,6.60
2019-05-09T11:29:46.260Z,3.63
2019-05-09T11:32:12.405Z,5.80
2019-05-09T11:34:39.967Z,5.40
2019-05-09T11:37:08.446Z,3.37
2019-05-09T11:39:41.779Z,5.43
2019-05-09T11:42:05.506Z,4.80
2019-05-09T11:44:33.892Z,5.10
2019-05-09T11:47:01.403Z,5.67
2019-05-09T11:49:29.612Z,4.47
2019-05-09T11:51:57.768Z,5.03
2019-05-09T11:54:28.020Z,3.60
2019-05-09T11:56:57.807Z,3.10
2019-05-09T11:59:25.285Z,3.93
2019-05-09T12:01:52.880Z,3.07
2019-05-09T12:04:20.494Z,5.43
2019-05-09T12:06:49.368Z,3.83
2019-05-09T12:09:17.116Z,4.97
2019-05-09T12:11:44.934Z,5.70
2019-05-09T12:14:13.615Z,4.27
2019-05-09T12:16:41.752Z,5.23
2019-05-09T12:19:09.060Z,2.67
2019-05-09T12:21:46.639Z,5.30
2019-05-09T12:24:06.022Z,4.63
2019-05-09T12:26:34.665Z,4.67
2019-05-09T12:29:02.223Z,3.53
2019-05-09T12:31:29.722Z,3.40
2019-05-09T12:33:59.268Z,3.60
2019-05-09T12:36:28.670Z,2.37
2019-05-09T12:38:59.073Z,7.67
2019-05-09T12:41:30.986Z,4.00
2019-05-09T12:43:57.455Z,3.50
2019-05-09T12:46:25.141Z,3.70
2019-05-09T12:48:52.892Z,3.97
2019-05-09T12:51:20.582Z,4.43
2019-05-09T12:53:48.741Z,3.13
2019-05-09T12:56:18.698Z,2.97
2019-05-09T12:58:47.758Z,3.10
2019-05-09T13:01:15.197Z,3.70
2019-05-09T13:03:48.246Z,5.53
2019-05-09T13:06:19.563Z,2.83
2019-05-09T13:08:44.672Z,5.50
2019-05-09T13:11:12.341Z,5.33
2019-05-09T13:13:41.137Z,4.10
2019-05-09T13:16:39.108Z,3.00
2019-05-09T13:19:14.416Z,3.93
2019-05-09T13:21:43.138Z,6.33
2019-05-09T13:24:10.750Z,3.70
2019-05-09T13:26:38.836Z,3.20
2019-05-09T13:29:08.094Z,1.97
2019-05-09T13:31:39.199Z,3.90
2019-05-09T13:34:07.708Z,3.53
2019-05-09T13:36:34.604Z,5.60
2019-05-09T13:39:04.987Z,5.53
2019-05-09T13:41:32.602Z,3.30
2019-05-09T13:44:05.146Z,5.30
2019-05-09T13:46:29.458Z,5.47
2019-05-09T13:49:14.873Z,3.70
2019-05-09T13:51:47.082Z,3.50
2019-05-09T13:54:07.698Z,2.07
2019-05-09T13:56:35.297Z,2.80
2019-05-09T13:59:03.500Z,2.87
2019-05-09T14:01:31.172Z,3.33
2019-05-09T14:03:59.056Z,2.40
2019-05-09T14:06:27.904Z,4.77
2019-05-09T14:08:59.360Z,3.00
2019-05-09T14:11:25.145Z,4.77
2019-05-09T14:13:52.547Z,2.60
2019-05-09T14:16:22.263Z,3.53
2019-05-09T14:18:49.808Z,3.60
2019-05-09T14:21:21.434Z,5.33
2019-05-09T14:24:00.165Z,3.00
2019-05-09T14:26:17.954Z,4.57
2019-05-09T14:28:45.626Z,3.70
2019-05-09T14:31:13.137Z,3.93
2019-05-09T14:33:40.620Z,6.13
2019-05-09T14:36:08.358Z,3.60
2019-05-09T14:38:36.160Z,3.10
2019-05-09T14:41:03.783Z,3.90
2019-05-09T14:43:31.358Z,3.63
2019-05-09T14:45:58.753Z,3.23
2019-05-09T14:48:28.542Z,4.50
2019-05-09T14:50:58.183Z,4.10
2019-05-09T14:53:25.010Z,2.90
2019-05-09T14:55:52.535Z,4.20
2019-05-09T14:58:19.946Z,6.57
2019-05-09T15:00:47.960Z,3.03
2019-05-09T15:03:15.466Z,3.00
2019-05-09T15:05:47.887Z,3.90
2019-05-09T15:08:15.018Z,4.07
2019-05-09T15:10:42.769Z,3.73
2019-05-09T15:13:10.287Z,4.97
2019-05-09T15:15:38.187Z,3.23
2019-05-09T15:18:08.051Z,5.83
2019-05-09T15:20:35.281Z,2.40
2019-05-09T15:23:02.909Z,3.90
2019-05-09T15:25:30.677Z,3.70
2019-05-09T15:27:58.226Z,7.77
2019-05-09T15:30:28.420Z,4.17
2019-05-09T15:32:55.032Z,4.90
2019-05-09T15:35:22.683Z,5.60
2019-05-09T15:37:50.208Z,4.93
2019-05-09T15:40:18.429Z,6.63
2019-05-09T15:42:47.867Z,3.40
2019-05-09T15:45:18.111Z,3.10
2019-05-09T15:47:45.138Z,5.10
2019-05-09T15:50:22.513Z,3.77
2019-05-09T15:52:42.786Z,3.00
2019-05-09T15:55:10.449Z,4.27
2019-05-09T15:57:38.050Z,2.80
2019-05-09T16:00:09.297Z,3.90
2019-05-09T16:02:39.147Z,4.80
2019-05-09T16:05:10.537Z,4.27
2019-05-09T16:07:37.489Z,3.90
2019-05-09T16:10:05.593Z,4.60
2019-05-09T16:12:33.451Z,8.03
2019-05-09T16:15:02.161Z,5.03
2019-05-09T16:17:29.927Z,3.97
2019-05-09T16:19:58.243Z,3.70
2019-05-09T16:22:28.259Z,6.27
2019-05-09T16:24:55.131Z,3.03
2019-05-09T16:27:22.803Z,4.63
2019-05-09T16:29:50.246Z,5.43
2019-05-09T16:32:17.966Z,3.40
2019-05-09T16:34:45.357Z,6.97
2019-05-09T16:37:13.096Z,5.57
2019-05-09T16:39:40.669Z,4.67
2019-05-09T16:42:11.611Z,8.23
2019-05-09T16:44:41.764Z,3.27
2019-05-09T16:47:08.503Z,5.67
2019-05-09T16:49:38.488Z,4.50
2019-05-09T16:52:07.359Z,4.27
2019-05-09T16:54:38.801Z,3.77
2019-05-09T16:57:08.254Z,2.77
2019-05-09T16:59:38.624Z,6.93
2019-05-09T17:02:17.827Z,3.03
2019-05-09T17:04:35.234Z,4.03
2019-05-09T17:07:03.867Z,2.47
2019-05-09T17:09:32.681Z,3.67
2019-05-09T17:12:00.305Z,5.33
2019-05-09T17:14:28.386Z,3.20
2019-05-09T17:16:59.625Z,4.00
2019-05-09T17:19:28.093Z,3.63
2019-05-09T17:22:11.555Z,4.23
2019-05-09T17:24:40.423Z,9.50
2019-05-09T17:27:08.715Z,3.17
2019-05-09T17:29:38.330Z,2.30
2019-05-09T17:32:07.746Z,5.90
2019-05-09T17:34:37.924Z,2.10
2019-05-09T17:37:05.384Z,1.83
2019-05-09T17:39:33.213Z,2.07
2019-05-09T17:42:01.008Z,2.83
2019-05-09T17:44:28.805Z,1.30
2019-05-09T17:46:59.673Z,1.87
2019-05-09T17:49:28.083Z,2.40
2019-05-09T17:51:58.219Z,1.57
2019-05-09T17:54:25.211Z,1.80
2019-05-09T17:56:52.901Z,4.43
2019-05-09T17:59:20.592Z,2.23
2019-05-09T18:01:48.361Z,2.30
2019-05-09T18:04:17.987Z,2.00
2019-05-09T18:06:45.802Z,1.90
2019-05-09T18:09:13.618Z,1.67
2019-05-09T18:11:41.772Z,3.43
2019-05-09T18:14:10.436Z,2.60
2019-05-09T18:16:39.098Z,3.40
2019-05-09T18:19:08.293Z,3.47
2019-05-09T18:21:49.554Z,2.33
2019-05-09T18:24:10.972Z,2.43
2019-05-09T18:26:41.372Z,2.57
2019-05-09T18:29:09.040Z,5.07
2019-05-09T18:32:08.120Z,3.57
2019-05-09T18:34:37.869Z,4.93
2019-05-09T18:37:07.805Z,7.83
2019-05-09T18:39:37.334Z,3.47
2019-05-09T18:42:04.673Z,4.00
2019-05-09T18:44:32.243Z,4.87
2019-05-09T18:46:59.782Z,3.90
2019-05-09T18:49:27.347Z,3.40
2019-05-09T18:52:03.317Z,4.80
2019-05-09T18:54:24.535Z,2.33
2019-05-09T18:56:52.132Z,2.50
2019-05-09T18:59:19.806Z,4.10
2019-05-09T19:01:47.488Z,5.60
2019-05-09T19:04:15.516Z,4.33
2019-05-09T19:06:43.147Z,3.33
2019-05-09T19:09:11.030Z,2.80
2019-05-09T19:11:38.968Z,6.17
2019-05-09T19:14:08.079Z,4.70
2019-05-09T19:16:46.539Z,4.20
2019-05-09T19:19:20.515Z,3.07
2019-05-09T19:21:54.073Z,3.57
2019-05-09T19:24:21.803Z,4.67
2019-05-09T19:26:49.442Z,9.30
2019-05-09T19:29:17.547Z,4.53
2019-05-09T19:31:45.272Z,4.10
2019-05-09T19:34:12.727Z,5.03
2019-05-09T19:36:40.187Z,4.40
2019-05-09T19:39:11.371Z,4.43
2019-05-09T19:41:39.495Z,4.60
2019-05-09T19:44:07.721Z,4.40
2019-05-09T19:46:36.342Z,3.80
2019-05-09T19:49:03.961Z,4.00
2019-05-09T19:51:32.677Z,7.37
2019-05-09T19:54:00.423Z,5.00
2019-05-09T19:56:27.923Z,5.00
2019-05-09T20:01:57.904Z,3.13
2019-05-09T20:04:26.280Z,4.17
2019-05-09T20:06:55.617Z,4.27
2019-05-09T20:09:28.870Z,3.80
2019-05-09T20:12:02.657Z,4.00
2019-05-09T20:14:39.613Z,4.53
2019-05-09T20:17:07.408Z,3.43
2019-05-09T20:19:35.501Z,4.00
2019-05-09T20:22:03.851Z,3.77
2019-05-09T20:24:31.467Z,6.53
2019-05-09T20:27:00.350Z,4.60
2019-05-09T20:29:30.202Z,5.60
2019-05-09T20:31:57.284Z,4.60
2019-05-09T20:34:24.848Z,4.40
2019-05-09T20:36:52.452Z,4.70
2019-05-09T20:39:20.194Z,5.30
2019-05-09T20:41:47.805Z,5.20
2019-05-09T20:44:15.270Z,7.13
2019-05-09T20:46:43.239Z,4.93
2019-05-09T20:49:10.801Z,5.70
2019-05-09T20:51:38.443Z,4.47
2019-05-09T20:54:20.001Z,5.30
2019-05-09T20:56:35.358Z,6.80
2019-05-09T20:59:02.915Z,9.07
2019-05-09T21:01:30.598Z,9.50
2019-05-09T21:04:00.567Z,8.97
2019-05-09T21:06:27.673Z,7.70
2019-05-09T21:08:55.383Z,6.53
2019-05-09T21:11:22.901Z,5.70
2019-05-09T21:13:50.772Z,5.33
2019-05-09T21:16:18.515Z,5.10
2019-05-09T21:18:46.205Z,5.27
2019-05-09T21:21:13.830Z,7.70
2019-05-09T21:23:43.627Z,4.50
2019-05-09T21:26:11.289Z,3.40
2019-05-09T21:28:38.985Z,3.30
2019-05-09T21:31:06.661Z,4.87
2019-05-09T21:33:34.232Z,4.40
2019-05-09T21:36:01.716Z,5.13
2019-05-09T21:38:29.138Z,5.50
2019-05-09T21:40:56.538Z,6.23
2019-05-09T21:43:24.126Z,5.70
2019-05-09T21:45:51.601Z,6.10
2019-05-09T21:48:19.178Z,7.70
2019-05-09T21:50:46.827Z,7.17
2019-05-09T21:53:15.384Z,8.43
2019-05-09T21:55:44.110Z,6.97
2019-05-09T21:58:11.610Z,6.97
2019-05-09T22:00:42.447Z,7.30
2019-05-09T22:03:11.787Z,7.70
2019-05-09T22:05:39.281Z,8.30
2019-05-09T22:08:06.851Z,9.50
2019-05-09T22:10:35.677Z,9.00
2019-05-09T22:13:03.353Z,9.47
2019-05-09T22:15:30.890Z,8.47
2019-05-09T22:17:58.319Z,9.40
2019-05-09T22:20:25.891Z,8.63
2019-05-09T22:22:53.338Z,9.17
2019-05-09T22:25:20.774Z,9.27
2019-05-09T22:27:49.520Z,9.00
2019-05-09T22:30:18.880Z,11.23
2019-05-09T22:32:46.313Z,9.90
2019-05-09T22:35:14.861Z,9.03
2019-05-09T22:37:42.658Z,10.47
2019-05-09T22:40:10.545Z,10.90
2019-05-09T22:42:38.101Z,11.77
2019-05-09T22:45:06.828Z,10.57
2019-05-09T22:47:34.246Z,9.73
2019-05-09T22:50:01.770Z,9.33
2019-05-09T22:52:29.267Z,11.40
2019-05-09T22:54:56.940Z,11.00
2019-05-09T22:57:24.450Z,12.20
2019-05-09T22:59:51.922Z,12.20
2019-05-09T23:02:19.504Z,10.83
2019-05-09T23:04:47.093Z,12.70
2019-05-09T23:07:14.674Z,11.83
2019-05-09T23:09:43.547Z,11.87
2019-05-09T23:12:11.105Z,11.83
2019-05-09T23:14:38.514Z,11.93
2019-05-09T23:17:06.706Z,12.40
2019-05-09T23:19:34.275Z,12.73
2019-05-09T23:22:01.762Z,11.50
2019-05-09T23:24:31.255Z,12.73
2019-05-09T23:26:59.717Z,12.07
2019-05-09T23:29:27.290Z,13.10
2019-05-09T23:32:03.905Z,12.40
2019-05-09T23:34:32.522Z,11.97
2019-05-09T23:37:19.427Z,13.00
2019-05-09T23:39:47.478Z,13.37
2019-05-09T23:42:15.010Z,12.27
2019-05-09T23:45:01.998Z,16.30
2019-05-09T23:47:29.583Z,14.13
2019-05-09T23:49:56.975Z,13.37
2019-05-09T23:52:24.486Z,15.33
2019-05-09T23:55:10.552Z,13.37
2019-05-09T23:57:56.438Z,13.93
